createdAt,value
2017-07-15T00:00:42.534Z,15.20
2017-07-15T00:03:08.760Z,15.10
2017-07-15T00:05:34.981Z,15.10
2017-07-15T00:08:01.190Z,15.00
2017-07-15T00:10:27.372Z,15.00
2017-07-15T00:12:53.588Z,15.00
2017-07-15T00:15:19.781Z,14.90
2017-07-15T00:17:45.971Z,15.00
2017-07-15T00:20:12.207Z,14.90
2017-07-15T00:22:38.398Z,14.90
2017-07-15T00:25:04.599Z,14.80
2017-07-15T00:27:30.807Z,14.70
2017-07-15T00:29:56.992Z,14.70
2017-07-15T00:32:23.214Z,14.60
2017-07-15T00:34:49.465Z,14.60
2017-07-15T00:37:15.654Z,14.60
2017-07-15T00:39:41.861Z,14.60
2017-07-15T00:42:08.031Z,14.50
2017-07-15T00:44:34.292Z,14.50
2017-07-15T00:47:00.548Z,14.60
2017-07-15T00:49:26.712Z,14.60
2017-07-15T00:51:52.908Z,14.60
2017-07-15T00:54:19.091Z,14.60
2017-07-15T00:56:45.292Z,14.50
2017-07-15T00:59:11.487Z,14.60
2017-07-15T01:01:37.729Z,14.50
2017-07-15T01:04:03.934Z,14.50
2017-07-15T01:06:30.143Z,14.50
2017-07-15T01:08:56.326Z,14.40
2017-07-15T01:11:22.509Z,14.40
2017-07-15T01:13:48.766Z,14.30
2017-07-15T01:16:14.941Z,14.30
2017-07-15T01:18:41.182Z,14.30
2017-07-15T01:21:07.375Z,14.20
2017-07-15T01:23:33.574Z,14.20
2017-07-15T01:25:59.727Z,14.30
2017-07-15T01:28:25.908Z,14.20
2017-07-15T01:30:52.064Z,14.30
2017-07-15T01:33:18.268Z,14.20
2017-07-15T01:35:44.477Z,14.30
2017-07-15T01:38:10.682Z,14.20
2017-07-15T01:40:36.983Z,14.20
2017-07-15T01:43:03.160Z,14.20
2017-07-15T01:45:29.362Z,14.30
2017-07-15T01:47:55.572Z,14.30
2017-07-15T01:50:21.778Z,14.30
2017-07-15T01:52:47.951Z,14.20
2017-07-15T01:55:14.190Z,14.20
2017-07-15T01:57:40.399Z,14.10
2017-07-15T02:00:06.630Z,14.10
2017-07-15T02:02:32.889Z,14.20
2017-07-15T02:04:59.180Z,14.10
2017-07-15T02:07:25.368Z,14.10
2017-07-15T02:09:51.672Z,14.00
2017-07-15T02:12:17.899Z,14.00
2017-07-15T02:14:44.097Z,14.10
2017-07-15T02:17:10.331Z,14.10
2017-07-15T02:19:36.532Z,14.00
2017-07-15T02:22:02.763Z,13.80
2017-07-15T02:24:28.965Z,13.80
2017-07-15T02:26:55.131Z,13.80
2017-07-15T02:29:21.297Z,13.80
2017-07-15T02:31:47.524Z,13.90
2017-07-15T02:34:13.711Z,14.00
2017-07-15T02:36:39.932Z,13.90
2017-07-15T02:39:06.190Z,13.90
2017-07-15T02:41:32.498Z,13.90
2017-07-15T02:43:58.704Z,14.00
2017-07-15T02:46:24.925Z,13.90
2017-07-15T02:48:51.110Z,13.80
2017-07-15T02:51:17.342Z,13.80
2017-07-15T02:53:43.560Z,13.80
2017-07-15T02:56:09.804Z,13.80
2017-07-15T02:58:36.101Z,13.80
2017-07-15T03:01:02.399Z,13.80
2017-07-15T03:03:28.671Z,13.80
2017-07-15T03:05:54.937Z,13.70
2017-07-15T03:08:21.170Z,13.80
2017-07-15T03:10:47.580Z,13.80
2017-07-15T03:13:13.858Z,13.80
2017-07-15T03:15:40.163Z,13.80
2017-07-15T03:18:06.402Z,13.80
2017-07-15T03:20:32.756Z,13.70
2017-07-15T03:22:58.984Z,13.70
2017-07-15T03:25:25.301Z,13.70
2017-07-15T03:27:51.583Z,13.80
2017-07-15T03:30:17.948Z,13.70
2017-07-15T03:32:44.398Z,13.60
2017-07-15T03:35:10.721Z,13.50
2017-07-15T03:37:36.921Z,13.40
2017-07-15T03:40:03.272Z,13.50
2017-07-15T03:42:29.539Z,13.50
2017-07-15T03:44:55.754Z,13.50
2017-07-15T03:47:21.930Z,13.50
2017-07-15T03:49:48.176Z,13.50
2017-07-15T03:52:14.432Z,13.60
2017-07-15T03:54:40.699Z,13.50
2017-07-15T03:57:06.943Z,13.40
2017-07-15T03:59:33.364Z,13.40
2017-07-15T04:01:59.547Z,13.40
2017-07-15T04:04:25.736Z,13.40
2017-07-15T04:06:51.937Z,13.40
2017-07-15T04:09:18.155Z,13.40
2017-07-15T04:11:44.351Z,13.30
2017-07-15T04:14:10.530Z,13.40
2017-07-15T04:16:36.723Z,13.40
2017-07-15T04:19:02.963Z,13.50
2017-07-15T04:21:29.205Z,13.50
2017-07-15T04:23:55.445Z,13.50
2017-07-15T04:26:21.747Z,13.40
2017-07-15T04:28:47.950Z,13.50
2017-07-15T04:31:14.258Z,13.50
2017-07-15T04:33:40.449Z,13.50
2017-07-15T04:36:06.653Z,13.50
2017-07-15T04:38:32.860Z,13.60
2017-07-15T04:40:59.074Z,13.70
2017-07-15T04:43:25.265Z,13.70
2017-07-15T04:45:51.518Z,13.70
2017-07-15T04:48:17.851Z,13.80
2017-07-15T04:50:44.048Z,13.90
2017-07-15T04:53:10.248Z,14.00
2017-07-15T04:55:36.568Z,14.10
2017-07-15T04:58:02.838Z,14.20
2017-07-15T05:00:29.016Z,14.30
2017-07-15T05:02:55.221Z,14.30
2017-07-15T05:05:21.596Z,14.40
2017-07-15T05:07:47.888Z,14.50
2017-07-15T05:10:14.127Z,14.50
2017-07-15T05:12:40.305Z,14.60
2017-07-15T05:15:06.588Z,14.60
2017-07-15T05:17:32.860Z,14.60
2017-07-15T05:19:59.075Z,14.70
2017-07-15T05:22:25.252Z,14.70
2017-07-15T05:24:51.585Z,14.80
2017-07-15T05:27:17.773Z,14.80
2017-07-15T05:29:44.059Z,14.90
2017-07-15T05:32:10.245Z,15.00
2017-07-15T05:34:36.493Z,15.00
2017-07-15T05:37:02.717Z,15.00
2017-07-15T05:39:29.005Z,15.10
2017-07-15T05:41:55.216Z,15.10
2017-07-15T05:44:21.496Z,15.20
2017-07-15T05:46:47.710Z,15.20
2017-07-15T05:49:13.897Z,15.30
2017-07-15T05:51:40.089Z,15.30
2017-07-15T05:54:06.304Z,15.30
2017-07-15T05:56:32.493Z,15.20
2017-07-15T05:58:58.684Z,15.30
2017-07-15T06:01:24.984Z,15.20
2017-07-15T06:03:51.156Z,15.30
2017-07-15T06:06:17.352Z,15.30
2017-07-15T06:08:43.508Z,15.30
2017-07-15T06:11:09.705Z,15.30
2017-07-15T06:13:35.948Z,15.40
2017-07-15T06:16:02.143Z,15.40
2017-07-15T06:18:28.392Z,15.50
2017-07-15T06:20:54.569Z,15.50
2017-07-15T06:23:20.733Z,15.50
2017-07-15T06:25:46.905Z,15.50
2017-07-15T06:28:13.140Z,15.50
2017-07-15T06:30:39.404Z,15.50
2017-07-15T06:33:05.616Z,15.50
2017-07-15T06:35:31.890Z,15.50
2017-07-15T06:37:58.083Z,15.40
2017-07-15T06:40:24.286Z,15.50
2017-07-15T06:42:50.521Z,15.40
2017-07-15T06:45:16.696Z,15.50
2017-07-15T06:47:42.889Z,15.60
2017-07-15T06:50:09.180Z,15.50
2017-07-15T06:52:35.352Z,15.50
2017-07-15T06:55:01.759Z,15.50
2017-07-15T06:57:27.965Z,15.50
2017-07-15T06:59:54.238Z,15.50
2017-07-15T07:02:20.427Z,15.40
2017-07-15T07:04:46.605Z,15.40
2017-07-15T07:07:12.812Z,15.40
2017-07-15T07:09:39.012Z,15.40
2017-07-15T07:12:05.180Z,15.40
2017-07-15T07:14:31.368Z,15.40
2017-07-15T07:16:57.543Z,15.40
2017-07-15T07:19:23.705Z,15.50
2017-07-15T07:21:49.889Z,15.70
2017-07-15T07:24:16.128Z,15.80
2017-07-15T07:26:42.333Z,15.90
2017-07-15T07:29:08.540Z,16.10
2017-07-15T07:31:34.759Z,16.20
2017-07-15T07:34:00.947Z,16.30
2017-07-15T07:36:27.115Z,16.40
2017-07-15T07:38:53.298Z,16.40
2017-07-15T07:41:19.523Z,16.50
2017-07-15T07:43:45.700Z,16.50
2017-07-15T07:46:11.859Z,16.60
2017-07-15T07:48:38.053Z,16.70
2017-07-15T07:51:04.231Z,16.70
2017-07-15T07:53:30.478Z,16.70
2017-07-15T07:55:56.684Z,16.80
2017-07-15T07:58:22.893Z,16.90
2017-07-15T08:00:49.087Z,17.00
2017-07-15T08:03:15.283Z,17.10
2017-07-15T08:05:41.482Z,17.10
2017-07-15T08:08:07.650Z,17.20
2017-07-15T08:10:39.875Z,17.20
2017-07-15T08:13:06.051Z,17.20
2017-07-15T08:15:32.199Z,17.30
2017-07-15T08:17:58.426Z,17.40
2017-07-15T08:20:25.027Z,17.50
2017-07-15T08:22:51.207Z,17.70
2017-07-15T08:25:17.601Z,17.60
2017-07-15T08:27:43.772Z,17.50
2017-07-15T08:30:10.016Z,17.60
2017-07-15T08:32:36.223Z,17.60
2017-07-15T08:35:02.469Z,17.60
2017-07-15T08:37:28.661Z,17.60
2017-07-15T08:39:54.860Z,17.60
2017-07-15T08:42:21.060Z,17.70
2017-07-15T08:44:47.275Z,17.70
2017-07-15T08:47:13.494Z,17.70
2017-07-15T08:49:39.721Z,17.60
2017-07-15T08:52:05.903Z,17.60
2017-07-15T08:54:32.118Z,17.70
2017-07-15T08:56:58.325Z,17.80
2017-07-15T08:59:24.502Z,17.90
2017-07-15T09:01:50.717Z,18.00
2017-07-15T09:04:16.857Z,18.10
2017-07-15T09:06:43.030Z,18.00
2017-07-15T09:09:09.248Z,18.00
2017-07-15T09:11:35.444Z,18.00
2017-07-15T09:14:01.648Z,17.90
2017-07-15T09:16:27.856Z,18.00
2017-07-15T09:18:54.096Z,18.00
2017-07-15T09:21:20.333Z,18.10
2017-07-15T09:23:46.549Z,18.20
2017-07-15T09:26:12.733Z,18.30
2017-07-15T09:28:38.911Z,18.30
2017-07-15T09:31:05.129Z,18.30
2017-07-15T09:33:31.318Z,18.20
2017-07-15T09:35:57.541Z,18.20
2017-07-15T09:38:23.771Z,18.30
2017-07-15T09:40:49.968Z,18.30
2017-07-15T09:43:16.212Z,18.40
2017-07-15T09:45:42.402Z,18.50
2017-07-15T09:48:08.609Z,18.60
2017-07-15T09:50:34.804Z,18.60
2017-07-15T09:53:01.012Z,18.60
2017-07-15T09:55:27.212Z,18.80
2017-07-15T09:57:53.436Z,18.90
2017-07-15T10:00:19.637Z,18.90
2017-07-15T10:02:45.834Z,19.10
2017-07-15T10:05:12.037Z,19.10
2017-07-15T10:07:44.171Z,19.10
2017-07-15T10:10:10.364Z,19.10
2017-07-15T10:12:36.555Z,19.20
2017-07-15T10:15:02.749Z,19.40
2017-07-15T10:17:28.960Z,19.50
2017-07-15T10:19:55.148Z,19.40
2017-07-15T10:22:21.325Z,19.30
2017-07-15T10:24:47.512Z,19.30
2017-07-15T10:27:13.786Z,19.30
2017-07-15T10:29:40.028Z,19.30
2017-07-15T10:32:06.208Z,19.20
2017-07-15T10:34:32.479Z,19.20
2017-07-15T10:36:58.666Z,19.20
2017-07-15T10:39:24.848Z,19.20
2017-07-15T10:41:51.023Z,19.20
2017-07-15T10:44:17.225Z,19.10
2017-07-15T10:46:43.448Z,19.10
2017-07-15T10:49:09.655Z,19.00
2017-07-15T10:51:35.896Z,19.00
2017-07-15T10:54:02.125Z,19.00
2017-07-15T10:56:28.333Z,19.00
2017-07-15T10:58:54.524Z,19.10
2017-07-15T11:01:20.688Z,19.10
2017-07-15T11:03:46.894Z,19.20
2017-07-15T11:06:13.069Z,19.30
2017-07-15T11:08:39.335Z,19.40
2017-07-15T11:11:05.528Z,19.30
2017-07-15T11:13:31.701Z,19.30
2017-07-15T11:15:57.998Z,19.40
2017-07-15T11:18:24.209Z,19.40
2017-07-15T11:20:50.392Z,19.40
2017-07-15T11:23:16.575Z,19.40
2017-07-15T11:25:42.790Z,19.40
2017-07-15T11:28:08.944Z,19.20
2017-07-15T11:30:36.120Z,19.30
2017-07-15T11:33:02.310Z,19.20
2017-07-15T11:35:28.545Z,19.20
2017-07-15T11:37:54.725Z,19.20
2017-07-15T11:40:20.936Z,19.20
2017-07-15T11:42:47.112Z,19.10
2017-07-15T11:45:13.379Z,19.10
2017-07-15T11:47:39.633Z,19.10
2017-07-15T11:50:05.835Z,19.10
2017-07-15T11:52:32.030Z,19.10
2017-07-15T11:54:58.245Z,19.10
2017-07-15T11:57:24.473Z,19.00
2017-07-15T11:59:50.778Z,19.00
2017-07-15T12:02:16.971Z,19.20
2017-07-15T12:04:43.147Z,19.20
2017-07-15T12:07:09.323Z,19.30
2017-07-15T12:09:35.534Z,19.30
2017-07-15T12:12:01.726Z,19.40
2017-07-15T12:14:27.934Z,19.50
2017-07-15T12:16:54.105Z,19.60
2017-07-15T12:19:20.312Z,19.70
2017-07-15T12:21:46.508Z,19.80
2017-07-15T12:24:12.751Z,20.00
2017-07-15T12:26:39.031Z,20.20
2017-07-15T12:29:05.292Z,20.20
2017-07-15T12:31:31.471Z,20.00
2017-07-15T12:33:57.661Z,20.10
2017-07-15T12:36:23.842Z,20.10
2017-07-15T12:38:50.023Z,20.00
2017-07-15T12:41:16.209Z,19.80
2017-07-15T12:43:42.418Z,19.90
2017-07-15T12:46:08.605Z,19.90
2017-07-15T12:48:34.839Z,19.80
2017-07-15T12:51:01.020Z,19.80
2017-07-15T12:53:27.288Z,19.80
2017-07-15T12:55:53.468Z,19.70
2017-07-15T12:58:19.749Z,19.40
2017-07-15T13:00:45.961Z,19.40
2017-07-15T13:03:12.148Z,19.50
2017-07-15T13:05:38.375Z,19.60
2017-07-15T13:08:04.559Z,19.60
2017-07-15T13:10:30.791Z,19.50
2017-07-15T13:12:57.062Z,19.30
2017-07-15T13:15:23.277Z,19.40
2017-07-15T13:17:49.465Z,19.60
2017-07-15T13:20:15.649Z,19.60
2017-07-15T13:22:41.855Z,19.80
2017-07-15T13:25:08.057Z,20.00
2017-07-15T13:27:34.342Z,20.00
2017-07-15T13:30:00.507Z,20.10
2017-07-15T13:32:26.716Z,20.20
2017-07-15T13:34:52.872Z,20.40
2017-07-15T13:37:19.063Z,20.60
2017-07-15T13:39:45.293Z,20.70
2017-07-15T13:42:11.517Z,20.70
2017-07-15T13:44:37.697Z,20.70
2017-07-15T13:47:03.912Z,20.70
2017-07-15T13:49:30.094Z,20.70
2017-07-15T13:51:56.308Z,20.50
2017-07-15T13:54:22.540Z,20.40
2017-07-15T13:56:48.737Z,20.50
2017-07-15T13:59:14.916Z,20.50
2017-07-15T14:01:41.119Z,20.60
2017-07-15T14:04:07.278Z,20.50
2017-07-15T14:06:33.477Z,20.40
2017-07-15T14:08:59.642Z,20.40
2017-07-15T14:11:25.857Z,20.50
2017-07-15T14:13:52.064Z,20.40
2017-07-15T14:16:18.216Z,20.60
2017-07-15T14:18:44.413Z,20.60
2017-07-15T14:21:10.644Z,20.70
2017-07-15T14:23:36.844Z,20.60
2017-07-15T14:26:03.007Z,20.60
2017-07-15T14:28:29.244Z,20.60
2017-07-15T14:30:55.405Z,20.60
2017-07-15T14:33:21.587Z,20.50
2017-07-15T14:35:47.795Z,20.50
2017-07-15T14:38:14.004Z,20.50
2017-07-15T14:40:40.173Z,20.50
2017-07-15T14:43:06.327Z,20.60
2017-07-15T14:45:32.544Z,20.50
2017-07-15T14:47:58.720Z,20.50
2017-07-15T14:50:24.902Z,20.40
2017-07-15T14:52:51.160Z,20.40
2017-07-15T14:55:17.391Z,20.40
2017-07-15T14:57:43.556Z,20.40
2017-07-15T15:00:09.796Z,20.40
2017-07-15T15:02:35.991Z,20.40
2017-07-15T15:05:02.218Z,20.40
2017-07-15T15:07:28.375Z,20.40
2017-07-15T15:09:54.568Z,20.50
2017-07-15T15:12:20.832Z,20.60
2017-07-15T15:14:47.110Z,20.60
2017-07-15T15:17:13.306Z,20.70
2017-07-15T15:19:39.542Z,20.70
2017-07-15T15:22:05.771Z,20.80
2017-07-15T15:24:31.939Z,20.80
2017-07-15T15:26:58.151Z,20.80
2017-07-15T15:29:24.331Z,20.80
2017-07-15T15:31:50.548Z,20.90
2017-07-15T15:34:16.770Z,20.90
2017-07-15T15:36:43.008Z,20.80
2017-07-15T15:39:09.192Z,20.90
2017-07-15T15:41:35.428Z,21.00
2017-07-15T15:44:01.634Z,21.10
2017-07-15T15:46:27.859Z,21.10
2017-07-15T15:48:54.066Z,21.20
2017-07-15T15:51:20.248Z,21.10
2017-07-15T15:53:46.436Z,21.10
2017-07-15T15:56:12.587Z,21.10
2017-07-15T15:58:38.816Z,21.00
2017-07-15T16:01:05.019Z,21.00
2017-07-15T16:03:31.261Z,20.90
2017-07-15T16:05:57.477Z,21.00
2017-07-15T16:08:23.679Z,20.90
2017-07-15T16:10:49.835Z,20.90
2017-07-15T16:13:16.041Z,21.00
2017-07-15T16:15:42.278Z,20.90
2017-07-15T16:18:08.510Z,20.90
2017-07-15T16:20:34.803Z,20.90
2017-07-15T16:23:01.073Z,20.90
2017-07-15T16:25:27.294Z,20.90
2017-07-15T16:27:53.500Z,21.00
2017-07-15T16:30:19.696Z,21.00
2017-07-15T16:32:45.918Z,21.00
2017-07-15T16:35:12.178Z,21.00
2017-07-15T16:37:38.353Z,21.00
2017-07-15T16:40:04.597Z,21.00
2017-07-15T16:42:30.788Z,20.90
2017-07-15T16:44:56.985Z,21.00
2017-07-15T16:47:23.194Z,21.00
2017-07-15T16:49:49.406Z,21.10
2017-07-15T16:52:15.553Z,21.00
2017-07-15T16:54:41.741Z,21.00
2017-07-15T16:57:07.915Z,21.00
2017-07-15T16:59:34.071Z,21.00
2017-07-15T17:02:00.292Z,21.00
2017-07-15T17:04:26.486Z,21.00
2017-07-15T17:06:52.712Z,21.10
2017-07-15T17:09:18.916Z,21.00
2017-07-15T17:11:45.133Z,20.90
2017-07-15T17:14:11.367Z,20.80
2017-07-15T17:16:37.666Z,20.90
2017-07-15T17:19:03.857Z,21.00
2017-07-15T17:21:30.058Z,20.90
2017-07-15T17:23:56.225Z,21.00
2017-07-15T17:26:22.428Z,21.00
2017-07-15T17:28:48.610Z,21.00
2017-07-15T17:31:14.779Z,21.00
2017-07-15T17:33:41.012Z,20.90
2017-07-15T17:36:07.189Z,20.90
2017-07-15T17:38:33.389Z,20.80
2017-07-15T17:40:59.608Z,20.90
2017-07-15T17:43:25.790Z,20.80
2017-07-15T17:45:52.063Z,20.80
2017-07-15T17:48:18.261Z,20.80
2017-07-15T17:50:44.515Z,20.80
2017-07-15T17:53:10.720Z,20.80
2017-07-15T17:55:36.957Z,20.80
2017-07-15T17:58:03.220Z,20.60
2017-07-15T18:00:29.385Z,20.60
2017-07-15T18:02:55.795Z,20.70
2017-07-15T18:05:22.009Z,20.60
2017-07-15T18:07:48.221Z,20.50
2017-07-15T18:10:14.573Z,20.40
2017-07-15T18:12:40.888Z,20.30
2017-07-15T18:15:07.125Z,20.20
2017-07-15T18:17:33.331Z,20.40
2017-07-15T18:19:59.528Z,20.30
2017-07-15T18:22:25.809Z,20.30
2017-07-15T18:24:52.059Z,20.20
2017-07-15T18:27:18.245Z,20.00
2017-07-15T18:29:44.403Z,20.00
2017-07-15T18:32:10.603Z,19.80
2017-07-15T18:34:36.783Z,19.70
2017-07-15T18:37:03.775Z,20.00
2017-07-15T18:39:29.953Z,20.10
2017-07-15T18:41:56.148Z,19.90
2017-07-15T18:44:22.348Z,19.40
2017-07-15T18:46:49.044Z,19.20
2017-07-15T18:49:15.236Z,19.20
2017-07-15T18:51:41.406Z,19.00
2017-07-15T18:54:07.670Z,18.90
2017-07-15T18:56:33.863Z,18.90
2017-07-15T18:59:00.039Z,18.90
2017-07-15T19:01:26.258Z,18.90
2017-07-15T19:03:52.522Z,18.90
2017-07-15T19:06:18.740Z,19.00
2017-07-15T19:08:44.908Z,18.80
2017-07-15T19:11:11.090Z,18.80
2017-07-15T19:13:37.314Z,18.70
2017-07-15T19:16:03.507Z,18.50
2017-07-15T19:18:29.692Z,18.40
2017-07-15T19:20:55.875Z,18.50
2017-07-15T19:23:22.046Z,18.30
2017-07-15T19:25:48.229Z,18.10
2017-07-15T19:28:14.432Z,18.20
2017-07-15T19:30:40.672Z,18.00
2017-07-15T19:33:06.840Z,17.90
2017-07-15T19:35:33.003Z,18.00
2017-07-15T19:37:59.208Z,18.10
2017-07-15T19:40:25.408Z,18.00
2017-07-15T19:42:51.627Z,18.00
2017-07-15T19:45:17.818Z,17.90
2017-07-15T19:47:43.981Z,17.80
2017-07-15T19:50:10.172Z,17.70
2017-07-15T19:52:36.387Z,17.60
2017-07-15T19:55:02.575Z,17.50
2017-07-15T19:57:28.734Z,17.50
2017-07-15T19:59:54.876Z,17.40
2017-07-15T20:02:21.093Z,17.40
2017-07-15T20:04:47.270Z,17.10
2017-07-15T20:07:13.419Z,17.00
2017-07-15T20:09:39.733Z,17.00
2017-07-15T20:12:05.902Z,17.10
2017-07-15T20:14:32.125Z,17.00
2017-07-15T20:16:58.315Z,17.00
2017-07-15T20:19:24.501Z,17.10
2017-07-15T20:21:50.702Z,17.00
2017-07-15T20:24:16.863Z,16.80
2017-07-15T20:26:43.043Z,16.80
2017-07-15T20:29:09.216Z,16.80
2017-07-15T20:31:35.380Z,16.80
2017-07-15T20:34:08.577Z,16.80
2017-07-15T20:36:40.723Z,16.70
2017-07-15T20:39:06.914Z,16.70
2017-07-15T20:41:33.117Z,16.60
2017-07-15T20:43:59.317Z,16.50
2017-07-15T20:46:25.498Z,16.20
2017-07-15T20:48:51.696Z,16.20
2017-07-15T20:51:17.879Z,16.30
2017-07-15T20:53:50.007Z,16.40
2017-07-15T20:56:16.205Z,16.30
2017-07-15T20:58:42.436Z,16.30
2017-07-15T21:01:08.595Z,16.20
2017-07-15T21:03:34.799Z,16.20
2017-07-15T21:06:01.168Z,16.20
2017-07-15T21:08:27.339Z,16.30
2017-07-15T21:10:53.496Z,16.10
2017-07-15T21:13:19.682Z,16.00
2017-07-15T21:15:45.868Z,16.00
2017-07-15T21:18:12.064Z,15.90
2017-07-15T21:20:38.219Z,15.90
2017-07-15T21:23:04.404Z,15.90
2017-07-15T21:25:30.606Z,15.80
2017-07-15T21:27:56.768Z,15.70
2017-07-15T21:30:22.952Z,15.80
2017-07-15T21:32:49.143Z,15.70
2017-07-15T21:35:15.325Z,15.70
2017-07-15T21:37:41.492Z,15.70
2017-07-15T21:40:07.688Z,15.60
2017-07-15T21:42:33.866Z,15.60
2017-07-15T21:45:00.021Z,15.60
2017-07-15T21:47:26.234Z,15.60
2017-07-15T21:49:52.423Z,15.60
2017-07-15T21:52:18.628Z,15.50
2017-07-15T21:54:44.796Z,15.30
2017-07-15T21:57:10.996Z,15.40
2017-07-15T21:59:37.238Z,15.50
2017-07-15T22:02:03.486Z,15.40
2017-07-15T22:04:29.682Z,15.30
2017-07-15T22:06:55.907Z,15.30
2017-07-15T22:09:22.083Z,15.30
2017-07-15T22:11:48.243Z,15.20
2017-07-15T22:14:14.486Z,14.90
2017-07-15T22:16:40.651Z,15.00
2017-07-15T22:19:06.849Z,15.10
2017-07-15T22:21:33.036Z,15.10
2017-07-15T22:23:59.218Z,15.20
2017-07-15T22:26:25.409Z,15.20
2017-07-15T22:28:51.631Z,15.20
2017-07-15T22:31:17.857Z,15.10
2017-07-15T22:33:44.079Z,15.10
2017-07-15T22:36:10.268Z,14.90
2017-07-15T22:38:36.495Z,14.70
2017-07-15T22:41:02.683Z,14.70
2017-07-15T22:43:28.879Z,14.80
2017-07-15T22:45:55.071Z,14.90
2017-07-15T22:48:21.236Z,14.90
2017-07-15T22:50:47.441Z,14.90
2017-07-15T22:53:13.597Z,15.00
2017-07-15T22:55:39.936Z,15.00
2017-07-15T22:58:06.141Z,15.00
2017-07-15T23:00:32.342Z,15.00
2017-07-15T23:02:58.535Z,15.10
2017-07-15T23:05:24.726Z,14.70
2017-07-15T23:07:50.952Z,14.70
2017-07-15T23:10:17.132Z,14.80
2017-07-15T23:12:43.281Z,14.90
2017-07-15T23:15:09.504Z,15.00
2017-07-15T23:17:35.674Z,14.80
2017-07-15T23:20:01.940Z,14.90
2017-07-15T23:22:28.103Z,14.80
2017-07-15T23:24:54.252Z,14.70
2017-07-15T23:27:20.462Z,14.70
2017-07-15T23:29:46.651Z,14.70
2017-07-15T23:32:12.821Z,14.70
2017-07-15T23:34:38.975Z,14.70
2017-07-15T23:37:05.191Z,14.80
2017-07-15T23:39:31.385Z,14.90
2017-07-15T23:41:57.624Z,14.90
2017-07-15T23:44:23.896Z,14.90
2017-07-15T23:46:50.101Z,15.00
2017-07-15T23:49:16.285Z,14.80
2017-07-15T23:51:42.572Z,14.60
2017-07-15T23:54:08.769Z,14.60
2017-07-15T23:56:34.929Z,14.80
2017-07-15T23:59:01.160Z,14.90
